sensor_id;sensor_type;location;lat;lon;timestamp;temperature;humidity
12872;DHT22;6504;53.766;9.626;2023-05-10T00:00:16;15.80;99.90
12872;DHT22;6504;53.766;9.626;2023-05-10T00:02:45;15.70;99.90
12872;DHT22;6504;53.766;9.626;2023-05-10T00:05:14;15.70;99.90
12872;DHT22;6504;53.766;9.626;2023-05-10T00:07:42;15.70;99.90
12872;DHT22;6504;53.766;9.626;2023-05-10T00:10:11;15.70;99.90
12872;DHT22;6504;53.766;9.626;2023-05-10T00:12:40;15.60;99.90
12872;DHT22;6504;53.766;9.626;2023-05-10T00:15:10;15.60;99.90
12872;DHT22;6504;53.766;9.626;2023-05-10T00:17:38;15.60;99.90
12872;DHT22;6504;53.766;9.626;2023-05-10T00:20:07;15.60;99.90
12872;DHT22;6504;53.766;9.626;2023-05-10T00:22:36;15.60;99.90
12872;DHT22;6504;53.766;9.626;2023-05-10T00:25:04;15.50;99.90
12872;DHT22;6504;53.766;9.626;2023-05-10T00:27:33;15.50;99.90
12872;DHT22;6504;53.766;9.626;2023-05-10T00:30:01;15.50;99.90
12872;DHT22;6504;53.766;9.626;2023-05-10T00:32:30;15.40;99.90
12872;DHT22;6504;53.766;9.626;2023-05-10T00:34:58;15.40;99.90
12872;DHT22;6504;53.766;9.626;2023-05-10T00:37:26;15.40;99.90
12872;DHT22;6504;53.766;9.626;2023-05-10T00:39:54;15.30;99.90
12872;DHT22;6504;53.766;9.626;2023-05-10T00:42:22;15.30;99.90
12872;DHT22;6504;53.766;9.626;2023-05-10T00:44:50;15.30;99.90
12872;DHT22;6504;53.766;9.626;2023-05-10T00:47:18;15.20;99.90
12872;DHT22;6504;53.766;9.626;2023-05-10T00:49:48;15.20;99.90
12872;DHT22;6504;53.766;9.626;2023-05-10T00:52:16;15.10;99.90
12872;DHT22;6504;53.766;9.626;2023-05-10T00:54:44;15.10;99.90
12872;DHT22;6504;53.766;9.626;2023-05-10T00:57:12;15.10;99.90
12872;DHT22;6504;53.766;9.626;2023-05-10T00:59:40;15.00;99.90
12872;DHT22;6504;53.766;9.626;2023-05-10T01:02:09;15.00;99.90
12872;DHT22;6504;53.766;9.626;2023-05-10T01:04:37;14.90;99.90
12872;DHT22;6504;53.766;9.626;2023-05-10T01:07:07;14.90;99.90
12872;DHT22;6504;53.766;9.626;2023-05-10T01:09:35;14.80;99.90
12872;DHT22;6504;53.766;9.626;2023-05-10T01:12:05;14.80;99.90
12872;DHT22;6504;53.766;9.626;2023-05-10T01:14:34;14.80;99.90
12872;DHT22;6504;53.766;9.626;2023-05-10T01:17:05;14.80;99.90
12872;DHT22;6504;53.766;9.626;2023-05-10T01:19:34;14.80;99.90
12872;DHT22;6504;53.766;9.626;2023-05-10T01:22:13;14.80;99.90
12872;DHT22;6504;53.766;9.626;2023-05-10T01:25:18;14.70;99.90
12872;DHT22;6504;53.766;9.626;2023-05-10T01:28:08;14.70;99.90
12872;DHT22;6504;53.766;9.626;2023-05-10T01:31:03;14.70;99.90
12872;DHT22;6504;53.766;9.626;2023-05-10T01:33:38;14.60;99.90
12872;DHT22;6504;53.766;9.626;2023-05-10T01:36:15;14.60;99.90
12872;DHT22;6504;53.766;9.626;2023-05-10T01:38:56;14.60;99.90
12872;DHT22;6504;53.766;9.626;2023-05-10T01:41:31;14.60;99.90
12872;DHT22;6504;53.766;9.626;2023-05-10T01:44:08;14.50;99.90
12872;DHT22;6504;53.766;9.626;2023-05-10T01:46:39;14.50;99.90
12872;DHT22;6504;53.766;9.626;2023-05-10T01:49:10;14.50;99.90
12872;DHT22;6504;53.766;9.626;2023-05-10T01:51:41;14.50;99.90
12872;DHT22;6504;53.766;9.626;2023-05-10T01:54:13;14.40;99.90
12872;DHT22;6504;53.766;9.626;2023-05-10T01:56:44;14.40;99.90
12872;DHT22;6504;53.766;9.626;2023-05-10T01:59:16;14.40;99.90
12872;DHT22;6504;53.766;9.626;2023-05-10T02:01:45;14.40;99.90
12872;DHT22;6504;53.766;9.626;2023-05-10T02:04:16;14.30;99.90
12872;DHT22;6504;53.766;9.626;2023-05-10T02:06:46;14.30;99.90
12872;DHT22;6504;53.766;9.626;2023-05-10T02:09:16;14.30;99.90
12872;DHT22;6504;53.766;9.626;2023-05-10T02:11:44;14.30;99.90
12872;DHT22;6504;53.766;9.626;2023-05-10T02:14:13;14.30;99.90
12872;DHT22;6504;53.766;9.626;2023-05-10T02:16:43;14.20;99.90
12872;DHT22;6504;53.766;9.626;2023-05-10T02:19:13;14.20;99.90
12872;DHT22;6504;53.766;9.626;2023-05-10T02:21:44;14.20;99.90
12872;DHT22;6504;53.766;9.626;2023-05-10T02:24:14;14.20;99.90
12872;DHT22;6504;53.766;9.626;2023-05-10T02:26:44;14.20;99.90
12872;DHT22;6504;53.766;9.626;2023-05-10T02:29:14;14.20;99.90
12872;DHT22;6504;53.766;9.626;2023-05-10T02:31:43;14.20;99.90
12872;DHT22;6504;53.766;9.626;2023-05-10T02:34:11;14.20;99.90
12872;DHT22;6504;53.766;9.626;2023-05-10T02:36:42;14.10;99.90
12872;DHT22;6504;53.766;9.626;2023-05-10T02:39:11;14.10;99.90
12872;DHT22;6504;53.766;9.626;2023-05-10T02:41:42;14.10;99.90
12872;DHT22;6504;53.766;9.626;2023-05-10T02:44:11;14.10;99.90
12872;DHT22;6504;53.766;9.626;2023-05-10T02:46:42;14.10;99.90
12872;DHT22;6504;53.766;9.626;2023-05-10T02:49:10;14.10;99.90
12872;DHT22;6504;53.766;9.626;2023-05-10T02:51:44;14.00;99.90
12872;DHT22;6504;53.766;9.626;2023-05-10T02:54:19;14.00;99.90
12872;DHT22;6504;53.766;9.626;2023-05-10T02:56:51;14.00;99.90
12872;DHT22;6504;53.766;9.626;2023-05-10T02:59:20;13.90;99.90
12872;DHT22;6504;53.766;9.626;2023-05-10T03:01:48;13.90;99.90
12872;DHT22;6504;53.766;9.626;2023-05-10T03:04:16;13.90;99.90
12872;DHT22;6504;53.766;9.626;2023-05-10T03:06:46;13.90;99.90
12872;DHT22;6504;53.766;9.626;2023-05-10T03:09:14;13.90;99.90
12872;DHT22;6504;53.766;9.626;2023-05-10T03:11:53;13.80;99.90
12872;DHT22;6504;53.766;9.626;2023-05-10T03:14:34;13.80;99.90
12872;DHT22;6504;53.766;9.626;2023-05-10T03:17:11;13.80;99.90
12872;DHT22;6504;53.766;9.626;2023-05-10T03:19:45;13.80;99.90
12872;DHT22;6504;53.766;9.626;2023-05-10T03:22:23;13.70;99.90
12872;DHT22;6504;53.766;9.626;2023-05-10T03:24:55;13.70;99.90
12872;DHT22;6504;53.766;9.626;2023-05-10T03:27:25;13.70;99.90
12872;DHT22;6504;53.766;9.626;2023-05-10T03:29:55;13.70;99.90
12872;DHT22;6504;53.766;9.626;2023-05-10T03:32:23;13.70;99.90
12872;DHT22;6504;53.766;9.626;2023-05-10T03:34:51;13.70;99.90
12872;DHT22;6504;53.766;9.626;2023-05-10T03:37:21;13.70;99.90
12872;DHT22;6504;53.766;9.626;2023-05-10T03:39:49;13.70;99.90
12872;DHT22;6504;53.766;9.626;2023-05-10T03:42:17;13.70;99.90
12872;DHT22;6504;53.766;9.626;2023-05-10T03:44:45;13.70;99.90
12872;DHT22;6504;53.766;9.626;2023-05-10T03:47:13;13.70;99.90
12872;DHT22;6504;53.766;9.626;2023-05-10T03:49:41;13.70;99.90
12872;DHT22;6504;53.766;9.626;2023-05-10T03:52:09;13.70;99.90
12872;DHT22;6504;53.766;9.626;2023-05-10T03:54:39;13.70;99.90
12872;DHT22;6504;53.766;9.626;2023-05-10T03:57:07;13.60;99.90
12872;DHT22;6504;53.766;9.626;2023-05-10T03:59:35;13.60;99.90
12872;DHT22;6504;53.766;9.626;2023-05-10T04:02:03;13.60;99.90
12872;DHT22;6504;53.766;9.626;2023-05-10T04:04:31;13.70;99.90
12872;DHT22;6504;53.766;9.626;2023-05-10T04:06:59;13.60;99.90
12872;DHT22;6504;53.766;9.626;2023-05-10T04:09:27;13.70;99.90
12872;DHT22;6504;53.766;9.626;2023-05-10T04:11:56;13.70;99.90
12872;DHT22;6504;53.766;9.626;2023-05-10T04:14:26;13.60;99.90
12872;DHT22;6504;53.766;9.626;2023-05-10T04:16:54;13.60;99.90
12872;DHT22;6504;53.766;9.626;2023-05-10T04:19:22;13.60;99.90
12872;DHT22;6504;53.766;9.626;2023-05-10T04:21:50;13.60;99.90
12872;DHT22;6504;53.766;9.626;2023-05-10T04:24:18;13.60;99.90
12872;DHT22;6504;53.766;9.626;2023-05-10T04:26:46;13.60;99.90
12872;DHT22;6504;53.766;9.626;2023-05-10T04:29:16;13.60;99.90
12872;DHT22;6504;53.766;9.626;2023-05-10T04:31:44;13.60;99.90
12872;DHT22;6504;53.766;9.626;2023-05-10T04:34:12;13.60;99.90
12872;DHT22;6504;53.766;9.626;2023-05-10T04:36:40;13.60;99.90
12872;DHT22;6504;53.766;9.626;2023-05-10T04:39:08;13.60;99.90
12872;DHT22;6504;53.766;9.626;2023-05-10T04:41:37;13.50;99.90
12872;DHT22;6504;53.766;9.626;2023-05-10T04:44:06;13.50;99.90
12872;DHT22;6504;53.766;9.626;2023-05-10T04:46:35;13.50;99.90
12872;DHT22;6504;53.766;9.626;2023-05-10T04:49:03;13.60;99.90
12872;DHT22;6504;53.766;9.626;2023-05-10T04:51:31;13.60;99.90
12872;DHT22;6504;53.766;9.626;2023-05-10T04:53:59;13.60;99.90
12872;DHT22;6504;53.766;9.626;2023-05-10T04:56:32;13.60;99.90
12872;DHT22;6504;53.766;9.626;2023-05-10T04:59:00;13.60;99.90
12872;DHT22;6504;53.766;9.626;2023-05-10T05:01:29;13.60;99.90
12872;DHT22;6504;53.766;9.626;2023-05-10T05:03:58;13.60;99.90
12872;DHT22;6504;53.766;9.626;2023-05-10T05:06:27;13.60;99.90
12872;DHT22;6504;53.766;9.626;2023-05-10T05:08:55;13.60;99.90
12872;DHT22;6504;53.766;9.626;2023-05-10T05:11:23;13.60;99.90
12872;DHT22;6504;53.766;9.626;2023-05-10T05:13:52;13.60;99.90
12872;DHT22;6504;53.766;9.626;2023-05-10T05:16:20;13.60;99.90
12872;DHT22;6504;53.766;9.626;2023-05-10T05:18:48;13.60;99.90
12872;DHT22;6504;53.766;9.626;2023-05-10T05:21:18;13.60;99.90
12872;DHT22;6504;53.766;9.626;2023-05-10T05:23:47;13.60;99.90
12872;DHT22;6504;53.766;9.626;2023-05-10T05:26:15;13.60;99.90
12872;DHT22;6504;53.766;9.626;2023-05-10T05:28:43;13.60;99.90
12872;DHT22;6504;53.766;9.626;2023-05-10T05:31:11;13.60;99.90
12872;DHT22;6504;53.766;9.626;2023-05-10T05:33:40;13.60;99.90
12872;DHT22;6504;53.766;9.626;2023-05-10T05:36:08;13.60;99.90
12872;DHT22;6504;53.766;9.626;2023-05-10T05:38:38;13.70;99.90
12872;DHT22;6504;53.766;9.626;2023-05-10T05:41:06;13.70;99.90
12872;DHT22;6504;53.766;9.626;2023-05-10T05:43:34;13.70;99.90
12872;DHT22;6504;53.766;9.626;2023-05-10T05:46:04;13.70;99.90
12872;DHT22;6504;53.766;9.626;2023-05-10T05:48:32;13.70;99.90
12872;DHT22;6504;53.766;9.626;2023-05-10T05:51:00;13.70;99.90
12872;DHT22;6504;53.766;9.626;2023-05-10T05:53:32;13.70;99.90
12872;DHT22;6504;53.766;9.626;2023-05-10T05:56:01;13.80;99.90
12872;DHT22;6504;53.766;9.626;2023-05-10T05:58:30;13.80;99.90
12872;DHT22;6504;53.766;9.626;2023-05-10T06:00:58;13.80;99.90
12872;DHT22;6504;53.766;9.626;2023-05-10T06:03:26;13.80;99.90
12872;DHT22;6504;53.766;9.626;2023-05-10T06:05:54;13.80;99.90
12872;DHT22;6504;53.766;9.626;2023-05-10T06:08:22;13.90;99.90
12872;DHT22;6504;53.766;9.626;2023-05-10T06:10:50;13.90;99.90
12872;DHT22;6504;53.766;9.626;2023-05-10T06:13:19;13.90;99.90
12872;DHT22;6504;53.766;9.626;2023-05-10T06:15:47;14.00;99.90
12872;DHT22;6504;53.766;9.626;2023-05-10T06:18:15;14.10;99.90
12872;DHT22;6504;53.766;9.626;2023-05-10T06:20:44;14.10;99.90
12872;DHT22;6504;53.766;9.626;2023-05-10T06:23:12;14.10;99.90
12872;DHT22;6504;53.766;9.626;2023-05-10T06:25:40;14.10;99.90
12872;DHT22;6504;53.766;9.626;2023-05-10T06:28:08;14.20;99.90
12872;DHT22;6504;53.766;9.626;2023-05-10T06:30:37;14.20;99.90
12872;DHT22;6504;53.766;9.626;2023-05-10T06:33:05;14.20;99.90
12872;DHT22;6504;53.766;9.626;2023-05-10T06:35:33;14.30;99.90
12872;DHT22;6504;53.766;9.626;2023-05-10T06:38:01;14.30;99.90
12872;DHT22;6504;53.766;9.626;2023-05-10T06:40:29;14.40;99.90
12872;DHT22;6504;53.766;9.626;2023-05-10T06:42:57;14.40;99.90
12872;DHT22;6504;53.766;9.626;2023-05-10T06:45:26;14.50;99.90
12872;DHT22;6504;53.766;9.626;2023-05-10T06:47:55;14.50;99.90
12872;DHT22;6504;53.766;9.626;2023-05-10T06:50:23;14.60;99.90
12872;DHT22;6504;53.766;9.626;2023-05-10T06:52:51;14.60;99.90
12872;DHT22;6504;53.766;9.626;2023-05-10T06:55:19;14.70;99.90
12872;DHT22;6504;53.766;9.626;2023-05-10T06:57:47;14.70;99.90
12872;DHT22;6504;53.766;9.626;2023-05-10T07:00:16;14.80;99.90
12872;DHT22;6504;53.766;9.626;2023-05-10T07:02:45;14.80;99.90
12872;DHT22;6504;53.766;9.626;2023-05-10T07:05:15;14.90;99.90
12872;DHT22;6504;53.766;9.626;2023-05-10T07:07:43;14.90;99.90
12872;DHT22;6504;53.766;9.626;2023-05-10T07:10:11;14.90;99.90
12872;DHT22;6504;53.766;9.626;2023-05-10T07:12:40;15.00;99.90
12872;DHT22;6504;53.766;9.626;2023-05-10T07:15:09;15.10;99.90
12872;DHT22;6504;53.766;9.626;2023-05-10T07:17:37;15.10;99.90
12872;DHT22;6504;53.766;9.626;2023-05-10T07:20:08;15.20;99.90
12872;DHT22;6504;53.766;9.626;2023-05-10T07:22:38;15.30;99.90
12872;DHT22;6504;53.766;9.626;2023-05-10T07:25:06;15.30;99.90
12872;DHT22;6504;53.766;9.626;2023-05-10T07:27:34;15.30;99.90
12872;DHT22;6504;53.766;9.626;2023-05-10T07:30:03;15.40;99.90
12872;DHT22;6504;53.766;9.626;2023-05-10T07:32:31;15.50;99.90
12872;DHT22;6504;53.766;9.626;2023-05-10T07:34:59;15.50;99.90
12872;DHT22;6504;53.766;9.626;2023-05-10T07:37:27;15.60;99.90
12872;DHT22;6504;53.766;9.626;2023-05-10T07:39:57;15.70;99.90
12872;DHT22;6504;53.766;9.626;2023-05-10T07:42:25;15.80;99.90
12872;DHT22;6504;53.766;9.626;2023-05-10T07:44:53;15.80;99.90
12872;DHT22;6504;53.766;9.626;2023-05-10T07:47:21;15.90;99.90
12872;DHT22;6504;53.766;9.626;2023-05-10T07:49:50;16.00;99.90
12872;DHT22;6504;53.766;9.626;2023-05-10T07:52:18;16.00;99.90
12872;DHT22;6504;53.766;9.626;2023-05-10T07:54:48;16.00;99.90
12872;DHT22;6504;53.766;9.626;2023-05-10T07:57:17;16.10;99.90
12872;DHT22;6504;53.766;9.626;2023-05-10T07:59:45;16.10;99.90
12872;DHT22;6504;53.766;9.626;2023-05-10T08:02:14;16.20;99.90
12872;DHT22;6504;53.766;9.626;2023-05-10T08:04:42;16.20;99.90
12872;DHT22;6504;53.766;9.626;2023-05-10T08:07:10;16.20;99.90
12872;DHT22;6504;53.766;9.626;2023-05-10T08:09:38;16.30;99.90
12872;DHT22;6504;53.766;9.626;2023-05-10T08:12:06;16.20;99.90
12872;DHT22;6504;53.766;9.626;2023-05-10T08:14:36;16.30;99.90
12872;DHT22;6504;53.766;9.626;2023-05-10T08:17:04;16.30;99.90
12872;DHT22;6504;53.766;9.626;2023-05-10T08:19:32;16.40;99.90
12872;DHT22;6504;53.766;9.626;2023-05-10T08:22:00;16.40;99.90
12872;DHT22;6504;53.766;9.626;2023-05-10T08:24:28;16.40;99.90
12872;DHT22;6504;53.766;9.626;2023-05-10T08:26:56;16.50;99.90
12872;DHT22;6504;53.766;9.626;2023-05-10T08:29:25;16.50;99.90
12872;DHT22;6504;53.766;9.626;2023-05-10T08:31:57;16.50;99.90
12872;DHT22;6504;53.766;9.626;2023-05-10T08:34:25;16.50;99.90
12872;DHT22;6504;53.766;9.626;2023-05-10T08:36:53;16.50;99.90
12872;DHT22;6504;53.766;9.626;2023-05-10T08:39:21;16.50;99.90
12872;DHT22;6504;53.766;9.626;2023-05-10T08:42:00;16.50;99.90
12872;DHT22;6504;53.766;9.626;2023-05-10T08:44:29;16.40;99.90
12872;DHT22;6504;53.766;9.626;2023-05-10T08:47:04;16.40;99.90
12872;DHT22;6504;53.766;9.626;2023-05-10T08:49:33;16.40;99.90
12872;DHT22;6504;53.766;9.626;2023-05-10T08:52:02;16.40;99.90
12872;DHT22;6504;53.766;9.626;2023-05-10T08:54:32;16.30;99.90
12872;DHT22;6504;53.766;9.626;2023-05-10T08:57:00;16.20;99.90
12872;DHT22;6504;53.766;9.626;2023-05-10T08:59:29;16.20;99.90
12872;DHT22;6504;53.766;9.626;2023-05-10T09:01:58;16.10;99.90
12872;DHT22;6504;53.766;9.626;2023-05-10T09:04:28;16.00;99.90
12872;DHT22;6504;53.766;9.626;2023-05-10T09:06:57;16.00;99.90
12872;DHT22;6504;53.766;9.626;2023-05-10T09:09:25;15.90;99.90
12872;DHT22;6504;53.766;9.626;2023-05-10T09:11:54;15.90;99.90
12872;DHT22;6504;53.766;9.626;2023-05-10T09:14:23;15.90;99.90
12872;DHT22;6504;53.766;9.626;2023-05-10T09:16:53;15.80;99.90
12872;DHT22;6504;53.766;9.626;2023-05-10T09:19:22;15.80;99.90
12872;DHT22;6504;53.766;9.626;2023-05-10T09:21:51;15.80;99.90
12872;DHT22;6504;53.766;9.626;2023-05-10T09:24:19;15.80;99.90
12872;DHT22;6504;53.766;9.626;2023-05-10T09:26:48;15.80;99.90
12872;DHT22;6504;53.766;9.626;2023-05-10T09:29:16;15.80;99.90
12872;DHT22;6504;53.766;9.626;2023-05-10T09:31:46;15.80;99.90
12872;DHT22;6504;53.766;9.626;2023-05-10T09:34:18;15.80;99.90
12872;DHT22;6504;53.766;9.626;2023-05-10T09:36:55;15.80;99.90
12872;DHT22;6504;53.766;9.626;2023-05-10T09:39:31;15.80;99.90
12872;DHT22;6504;53.766;9.626;2023-05-10T09:42:00;15.80;99.90
12872;DHT22;6504;53.766;9.626;2023-05-10T09:44:31;15.80;99.90
12872;DHT22;6504;53.766;9.626;2023-05-10T09:46:59;15.80;99.90
12872;DHT22;6504;53.766;9.626;2023-05-10T09:49:28;15.80;99.90
12872;DHT22;6504;53.766;9.626;2023-05-10T09:52:05;15.90;99.90
12872;DHT22;6504;53.766;9.626;2023-05-10T09:54:34;15.80;99.90
12872;DHT22;6504;53.766;9.626;2023-05-10T09:57:02;15.80;99.90
12872;DHT22;6504;53.766;9.626;2023-05-10T09:59:33;15.70;99.90
12872;DHT22;6504;53.766;9.626;2023-05-10T10:02:02;15.70;99.90
12872;DHT22;6504;53.766;9.626;2023-05-10T10:04:30;15.60;99.90
12872;DHT22;6504;53.766;9.626;2023-05-10T10:07:04;15.60;99.90
12872;DHT22;6504;53.766;9.626;2023-05-10T10:09:33;15.50;99.90
12872;DHT22;6504;53.766;9.626;2023-05-10T10:12:02;15.40;99.90
12872;DHT22;6504;53.766;9.626;2023-05-10T10:14:31;15.30;99.90
12872;DHT22;6504;53.766;9.626;2023-05-10T10:17:00;15.20;99.90
12872;DHT22;6504;53.766;9.626;2023-05-10T10:19:33;15.20;99.90
12872;DHT22;6504;53.766;9.626;2023-05-10T10:22:03;15.20;99.90
12872;DHT22;6504;53.766;9.626;2023-05-10T10:24:31;15.20;99.90
12872;DHT22;6504;53.766;9.626;2023-05-10T10:27:05;15.10;99.90
12872;DHT22;6504;53.766;9.626;2023-05-10T10:29:41;15.10;99.90
12872;DHT22;6504;53.766;9.626;2023-05-10T10:32:22;15.10;99.90
12872;DHT22;6504;53.766;9.626;2023-05-10T10:34:53;15.10;99.90
12872;DHT22;6504;53.766;9.626;2023-05-10T10:37:23;15.10;99.90
12872;DHT22;6504;53.766;9.626;2023-05-10T10:39:51;15.10;99.90
12872;DHT22;6504;53.766;9.626;2023-05-10T10:42:44;15.10;99.90
12872;DHT22;6504;53.766;9.626;2023-05-10T10:45:12;15.10;99.90
12872;DHT22;6504;53.766;9.626;2023-05-10T10:47:41;15.10;99.90
12872;DHT22;6504;53.766;9.626;2023-05-10T10:50:10;15.10;99.90
12872;DHT22;6504;53.766;9.626;2023-05-10T10:52:41;15.10;99.90
12872;DHT22;6504;53.766;9.626;2023-05-10T10:55:11;15.10;99.90
12872;DHT22;6504;53.766;9.626;2023-05-10T10:57:50;15.10;99.90
12872;DHT22;6504;53.766;9.626;2023-05-10T11:00:24;15.20;99.90
12872;DHT22;6504;53.766;9.626;2023-05-10T11:02:54;15.20;99.90
12872;DHT22;6504;53.766;9.626;2023-05-10T11:05:25;15.20;99.90
12872;DHT22;6504;53.766;9.626;2023-05-10T11:07:55;15.20;99.90
12872;DHT22;6504;53.766;9.626;2023-05-10T11:10:24;15.20;99.90
12872;DHT22;6504;53.766;9.626;2023-05-10T11:12:53;15.20;99.90
12872;DHT22;6504;53.766;9.626;2023-05-10T11:15:28;15.20;99.90
12872;DHT22;6504;53.766;9.626;2023-05-10T11:17:57;15.20;99.90
12872;DHT22;6504;53.766;9.626;2023-05-10T11:20:27;15.10;99.90
12872;DHT22;6504;53.766;9.626;2023-05-10T11:23:12;15.10;99.90
12872;DHT22;6504;53.766;9.626;2023-05-10T11:25:42;15.10;99.90
12872;DHT22;6504;53.766;9.626;2023-05-10T11:28:11;15.10;99.90
12872;DHT22;6504;53.766;9.626;2023-05-10T11:30:41;15.10;99.90
12872;DHT22;6504;53.766;9.626;2023-05-10T11:33:15;15.00;99.90
12872;DHT22;6504;53.766;9.626;2023-05-10T11:35:44;15.00;99.90
12872;DHT22;6504;53.766;9.626;2023-05-10T11:38:14;15.00;99.90
12872;DHT22;6504;53.766;9.626;2023-05-10T11:40:42;15.00;99.90
12872;DHT22;6504;53.766;9.626;2023-05-10T11:43:10;15.00;99.90
12872;DHT22;6504;53.766;9.626;2023-05-10T11:45:41;14.90;99.90
12872;DHT22;6504;53.766;9.626;2023-05-10T11:48:10;15.00;99.90
12872;DHT22;6504;53.766;9.626;2023-05-10T11:50:38;15.00;99.90
12872;DHT22;6504;53.766;9.626;2023-05-10T11:53:06;15.00;99.90
12872;DHT22;6504;53.766;9.626;2023-05-10T11:55:35;15.00;99.90
12872;DHT22;6504;53.766;9.626;2023-05-10T11:58:03;15.00;99.90
12872;DHT22;6504;53.766;9.626;2023-05-10T12:00:31;15.00;99.90
12872;DHT22;6504;53.766;9.626;2023-05-10T12:03:00;15.00;99.90
12872;DHT22;6504;53.766;9.626;2023-05-10T12:05:32;15.00;99.90
12872;DHT22;6504;53.766;9.626;2023-05-10T12:08:13;15.00;99.90
12872;DHT22;6504;53.766;9.626;2023-05-10T12:10:43;15.00;99.90
12872;DHT22;6504;53.766;9.626;2023-05-10T12:13:11;15.00;99.90
12872;DHT22;6504;53.766;9.626;2023-05-10T12:15:41;15.00;99.90
12872;DHT22;6504;53.766;9.626;2023-05-10T12:18:10;15.10;99.90
12872;DHT22;6504;53.766;9.626;2023-05-10T12:20:38;15.10;99.90
12872;DHT22;6504;53.766;9.626;2023-05-10T12:23:09;15.10;99.90
12872;DHT22;6504;53.766;9.626;2023-05-10T12:25:37;15.10;99.90
12872;DHT22;6504;53.766;9.626;2023-05-10T12:28:08;15.10;99.90
12872;DHT22;6504;53.766;9.626;2023-05-10T12:30:37;15.20;99.90
12872;DHT22;6504;53.766;9.626;2023-05-10T12:33:08;15.20;99.90
12872;DHT22;6504;53.766;9.626;2023-05-10T12:35:44;15.20;99.90
12872;DHT22;6504;53.766;9.626;2023-05-10T12:38:25;15.20;99.90
12872;DHT22;6504;53.766;9.626;2023-05-10T12:40:53;15.30;99.90
12872;DHT22;6504;53.766;9.626;2023-05-10T12:43:23;15.30;99.90
12872;DHT22;6504;53.766;9.626;2023-05-10T12:45:51;15.40;99.90
12872;DHT22;6504;53.766;9.626;2023-05-10T12:48:19;15.40;99.90
12872;DHT22;6504;53.766;9.626;2023-05-10T12:50:47;15.40;99.90
12872;DHT22;6504;53.766;9.626;2023-05-10T12:53:16;15.40;99.90
12872;DHT22;6504;53.766;9.626;2023-05-10T12:55:44;15.40;99.90
12872;DHT22;6504;53.766;9.626;2023-05-10T12:58:12;15.40;99.90
12872;DHT22;6504;53.766;9.626;2023-05-10T13:01:01;15.50;99.90
12872;DHT22;6504;53.766;9.626;2023-05-10T13:03:31;15.40;99.90
12872;DHT22;6504;53.766;9.626;2023-05-10T13:05:59;15.50;99.90
12872;DHT22;6504;53.766;9.626;2023-05-10T13:08:27;15.50;99.90
12872;DHT22;6504;53.766;9.626;2023-05-10T13:11:00;15.60;99.90
12872;DHT22;6504;53.766;9.626;2023-05-10T13:13:28;15.60;99.90
12872;DHT22;6504;53.766;9.626;2023-05-10T13:15:56;15.70;99.90
12872;DHT22;6504;53.766;9.626;2023-05-10T13:18:25;15.80;99.90
12872;DHT22;6504;53.766;9.626;2023-05-10T13:20:54;15.80;99.90
12872;DHT22;6504;53.766;9.626;2023-05-10T13:23:22;15.90;99.90
12872;DHT22;6504;53.766;9.626;2023-05-10T13:25:50;15.90;99.90
12872;DHT22;6504;53.766;9.626;2023-05-10T13:28:18;15.90;99.90
12872;DHT22;6504;53.766;9.626;2023-05-10T13:30:46;15.90;99.90
12872;DHT22;6504;53.766;9.626;2023-05-10T13:33:14;16.00;99.90
12872;DHT22;6504;53.766;9.626;2023-05-10T13:35:44;16.10;99.90
12872;DHT22;6504;53.766;9.626;2023-05-10T13:38:12;16.10;99.90
12872;DHT22;6504;53.766;9.626;2023-05-10T13:40:40;16.20;99.90
12872;DHT22;6504;53.766;9.626;2023-05-10T13:43:08;16.20;99.90
12872;DHT22;6504;53.766;9.626;2023-05-10T13:45:36;16.30;99.90
12872;DHT22;6504;53.766;9.626;2023-05-10T13:48:05;16.30;99.90
12872;DHT22;6504;53.766;9.626;2023-05-10T13:50:33;16.30;99.90
12872;DHT22;6504;53.766;9.626;2023-05-10T13:53:03;16.30;99.90
12872;DHT22;6504;53.766;9.626;2023-05-10T13:55:32;16.30;99.90
12872;DHT22;6504;53.766;9.626;2023-05-10T13:58:00;16.30;99.90
12872;DHT22;6504;53.766;9.626;2023-05-10T14:00:28;16.30;99.90
12872;DHT22;6504;53.766;9.626;2023-05-10T14:02:56;16.40;99.90
12872;DHT22;6504;53.766;9.626;2023-05-10T14:05:24;16.40;99.90
12872;DHT22;6504;53.766;9.626;2023-05-10T14:07:52;16.40;99.90
12872;DHT22;6504;53.766;9.626;2023-05-10T14:10:22;16.40;99.90
12872;DHT22;6504;53.766;9.626;2023-05-10T14:12:50;16.40;99.90
12872;DHT22;6504;53.766;9.626;2023-05-10T14:15:18;16.40;99.90
12872;DHT22;6504;53.766;9.626;2023-05-10T14:17:46;16.50;99.90
12872;DHT22;6504;53.766;9.626;2023-05-10T14:20:15;16.50;99.90
12872;DHT22;6504;53.766;9.626;2023-05-10T14:22:43;16.50;99.90
12872;DHT22;6504;53.766;9.626;2023-05-10T14:25:11;16.50;99.90
12872;DHT22;6504;53.766;9.626;2023-05-10T14:27:40;16.50;99.90
12872;DHT22;6504;53.766;9.626;2023-05-10T14:30:09;16.50;99.90
12872;DHT22;6504;53.766;9.626;2023-05-10T14:32:37;16.40;99.90
12872;DHT22;6504;53.766;9.626;2023-05-10T14:35:06;16.40;99.90
12872;DHT22;6504;53.766;9.626;2023-05-10T14:37:38;16.30;99.90
12872;DHT22;6504;53.766;9.626;2023-05-10T14:40:08;16.40;99.90
12872;DHT22;6504;53.766;9.626;2023-05-10T14:42:36;16.40;99.90
12872;DHT22;6504;53.766;9.626;2023-05-10T14:45:07;16.50;99.90
12872;DHT22;6504;53.766;9.626;2023-05-10T14:47:35;16.50;99.90
12872;DHT22;6504;53.766;9.626;2023-05-10T14:50:04;16.60;99.90
12872;DHT22;6504;53.766;9.626;2023-05-10T14:52:32;16.60;99.90
12872;DHT22;6504;53.766;9.626;2023-05-10T14:55:00;16.70;99.90
12872;DHT22;6504;53.766;9.626;2023-05-10T14:57:28;16.70;99.90
12872;DHT22;6504;53.766;9.626;2023-05-10T14:59:57;16.80;99.90
12872;DHT22;6504;53.766;9.626;2023-05-10T15:02:27;16.80;99.90
12872;DHT22;6504;53.766;9.626;2023-05-10T15:04:55;16.80;99.90
12872;DHT22;6504;53.766;9.626;2023-05-10T15:07:24;16.90;99.90
12872;DHT22;6504;53.766;9.626;2023-05-10T15:09:52;16.90;99.90
12872;DHT22;6504;53.766;9.626;2023-05-10T15:12:20;16.90;99.90
12872;DHT22;6504;53.766;9.626;2023-05-10T15:14:48;17.00;99.90
12872;DHT22;6504;53.766;9.626;2023-05-10T15:17:16;17.00;99.90
12872;DHT22;6504;53.766;9.626;2023-05-10T15:19:46;17.10;99.90
12872;DHT22;6504;53.766;9.626;2023-05-10T15:22:16;17.10;99.90
12872;DHT22;6504;53.766;9.626;2023-05-10T15:24:44;17.10;99.90
12872;DHT22;6504;53.766;9.626;2023-05-10T15:27:12;17.20;99.90
12872;DHT22;6504;53.766;9.626;2023-05-10T15:29:40;17.10;99.90
12872;DHT22;6504;53.766;9.626;2023-05-10T15:32:08;17.20;99.90
12872;DHT22;6504;53.766;9.626;2023-05-10T15:34:36;17.20;99.90
12872;DHT22;6504;53.766;9.626;2023-05-10T15:37:06;17.20;99.90
12872;DHT22;6504;53.766;9.626;2023-05-10T15:39:34;17.30;99.90
12872;DHT22;6504;53.766;9.626;2023-05-10T15:42:02;17.30;99.90
12872;DHT22;6504;53.766;9.626;2023-05-10T15:44:30;17.30;99.90
12872;DHT22;6504;53.766;9.626;2023-05-10T15:46:58;17.30;99.90
12872;DHT22;6504;53.766;9.626;2023-05-10T15:49:26;17.40;99.90
12872;DHT22;6504;53.766;9.626;2023-05-10T15:51:54;17.40;99.90
12872;DHT22;6504;53.766;9.626;2023-05-10T15:54:24;17.40;99.90
12872;DHT22;6504;53.766;9.626;2023-05-10T15:56:54;17.40;99.90
12872;DHT22;6504;53.766;9.626;2023-05-10T15:59:22;17.40;99.90